PWSweather.com
Personal Weather Stations
Station Observations
ABCSTATION
Croke Park City Centre Dublin, DublinIE Dublin

Croke Park City Centre DublinDublinIE Dublin

Lat: 53.3585133, Lon: -6.2522999000000254

Elevation: 30

Station Type: Weather Station Wireless Professional WS2083

http://www.abcweatherstation.com

Latest ConditionsUpdated 4:50:00 PM GMT Monday, Sep 23, 2019
Currently Today's Max Today's Min Today's Average
Temperature 59.9°F15.5°C 59.9°F15.5°C 50.9°F10.5°C 55.3°F12.9°C
Dew Point 59.6°F15.3°C 59.6°F15.3°C 49.6°F9.8°C 53.1°F11.7°C
Winds Calm Calm 8.3 mph -13.4 kmh - - 1.9 mph 3.1 kmh
Wind Gusts 6.9 mph11.1 kmh 16.8 mph27.0 kmh - -
Humidity 99% 100% 82% 92%
Pressure 29.45 in997.3 mb 29.67 in1004.7 mb 29.45 in997.3 mb -
Precipitation - 0.09 in2.3 mm - -
Hour Temp Dew Point Humidity Winds Wind Gusts Pressure Precip Precip Rate Daily Precip Total
04:50 PM 59.9°F15.5°C 59.6°F15.3°C 99% Calm Calm 6.9 mph11.1 kmh 29.45 in997.3 mb 0.00 in0.0 mm 0.00 in0.0 mm 0.09 in2.3 mm
04:45 PM 59.5°F15.3°C 59.3°F15.2°C 99% 2.2 mph NW3.5 kmh NW 6.9 mph11.1 kmh 29.45 in997.3 mb 0.01 in0.3 mm 0.00 in0.0 mm 0.09 in2.3 mm
04:40 PM 58.8°F14.9°C 58.6°F14.8°C 99% 1.6 mph NW2.6 kmh NW 6.0 mph9.7 kmh 29.45 in997.3 mb 0.01 in0.3 mm 0.00 in0.0 mm 0.09 in2.3 mm
04:35 PM 58.3°F14.6°C 58.0°F14.4°C 99% 1.6 mph W2.6 kmh W 6.0 mph9.7 kmh 29.46 in997.6 mb 0.01 in0.3 mm 0.00 in0.0 mm 0.09 in2.3 mm
04:30 PM 57.6°F14.2°C 57.3°F14.1°C 99% 3.1 mph WSW5.0 kmh WSW 6.0 mph9.7 kmh 29.46 in997.6 mb 0.01 in0.3 mm 0.00 in0.0 mm 0.09 in2.3 mm
04:25 PM 57.0°F13.9°C 56.8°F13.8°C 99% 2.2 mph S3.5 kmh S 6.0 mph9.7 kmh 29.46 in997.6 mb 0.01 in0.3 mm 0.00 in0.0 mm 0.09 in2.3 mm
04:20 PM 57.0°F13.9°C 56.8°F13.8°C 99% 2.2 mph SW3.5 kmh SW 6.0 mph9.7 kmh 29.46 in997.6 mb 0.01 in0.3 mm 0.00 in0.0 mm 0.09 in2.3 mm
04:15 PM 56.8°F13.8°C 56.6°F13.7°C 99% 2.2 mph W3.5 kmh W 13.6 mph21.9 kmh 29.46 in997.6 mb 0.01 in0.3 mm 0.00 in0.0 mm 0.09 in2.3 mm
04:10 PM 56.8°F13.8°C 56.6°F13.7°C 99% 3.1 mph WSW5.0 kmh WSW 13.6 mph21.9 kmh 29.47 in998.0 mb 0.01 in0.3 mm 0.00 in0.0 mm 0.09 in2.3 mm
04:05 PM 56.8°F13.8°C 56.6°F13.7°C 99% 3.8 mph WSW6.1 kmh WSW 13.0 mph20.9 kmh 29.46 in997.6 mb 0.01 in0.3 mm 0.00 in0.0 mm 0.09 in2.3 mm
04:00 PM 56.8°F13.8°C 56.6°F13.7°C 99% 6.9 mph WSW11.1 kmh WSW 16.8 mph27.0 kmh 29.47 in998.0 mb 0.01 in0.3 mm 0.00 in0.0 mm 0.09 in2.3 mm
03:55 PM 56.8°F13.8°C 56.6°F13.7°C 99% 3.8 mph W6.1 kmh W 16.8 mph27.0 kmh 29.47 in998.0 mb 0.01 in0.3 mm 0.00 in0.0 mm 0.09 in2.3 mm
03:50 PM 56.8°F13.8°C 56.6°F13.7°C 99% 6.9 mph W11.1 kmh W 15.9 mph25.6 kmh 29.47 in998.0 mb 0.01 in0.3 mm 0.12 in3.0 mm 0.09 in2.3 mm
03:45 PM 56.7°F13.7°C 56.4°F13.6°C 99% 3.8 mph W6.1 kmh W 15.9 mph25.6 kmh 29.47 in998.0 mb 0.00 in0.0 mm 0.00 in0.0 mm 0.08 in2.0 mm
03:40 PM 56.7°F13.7°C 56.4°F13.6°C 99% 4.5 mph WSW7.2 kmh WSW 10.7 mph17.2 kmh 29.48 in998.3 mb 0.00 in0.0 mm 0.00 in0.0 mm 0.08 in2.0 mm
03:35 PM 56.8°F13.8°C 56.6°F13.7°C 99% 3.8 mph WSW6.1 kmh WSW 10.7 mph17.2 kmh 29.48 in998.3 mb 0.00 in0.0 mm 0.00 in0.0 mm 0.08 in2.0 mm
03:30 PM 56.8°F13.8°C 56.6°F13.7°C 99% 3.1 mph WSW5.0 kmh WSW 9.8 mph15.8 kmh 29.49 in998.6 mb 0.01 in0.3 mm 0.00 in0.0 mm 0.08 in2.0 mm
03:25 PM 57.0°F13.9°C 56.8°F13.8°C 99% 6.9 mph SW11.1 kmh SW 11.4 mph18.3 kmh 29.49 in998.6 mb 0.01 in0.3 mm 0.00 in0.0 mm 0.08 in2.0 mm
03:20 PM 57.0°F13.9°C 56.8°F13.8°C 99% 3.1 mph WSW5.0 kmh WSW 11.4 mph18.3 kmh 29.49 in998.6 mb 0.01 in0.3 mm 0.00 in0.0 mm 0.08 in2.0 mm
03:15 PM 57.0°F13.9°C 56.8°F13.8°C 99% 6.9 mph NNW11.1 kmh NNW 11.4 mph18.3 kmh 29.49 in998.6 mb 0.01 in0.3 mm 0.00 in0.0 mm 0.08 in2.0 mm
03:10 PM 57.0°F13.9°C 56.8°F13.8°C 99% 3.8 mph NNW6.1 kmh NNW 11.4 mph18.3 kmh 29.50 in999.0 mb 0.01 in0.3 mm 0.00 in0.0 mm 0.08 in2.0 mm
03:05 PM 57.0°F13.9°C 56.8°F13.8°C 99% 5.4 mph W8.7 kmh W 15.2 mph24.5 kmh 29.50 in999.0 mb 0.01 in0.3 mm 0.00 in0.0 mm 0.08 in2.0 mm
03:00 PM 57.0°F13.9°C 56.8°F13.8°C 99% 4.5 mph WSW7.2 kmh WSW 15.2 mph24.5 kmh 29.50 in999.0 mb 0.01 in0.3 mm 0.00 in0.0 mm 0.08 in2.0 mm
02:55 PM 56.8°F13.8°C 56.6°F13.7°C 99% 2.2 mph W3.5 kmh W 13.6 mph21.9 kmh 29.51 in999.3 mb 0.02 in0.5 mm 0.00 in0.0 mm 0.08 in2.0 mm
02:50 PM 57.0°F13.9°C 56.8°F13.8°C 99% 4.5 mph W7.2 kmh W 13.6 mph21.9 kmh 29.51 in999.3 mb 0.02 in0.5 mm 0.00 in0.0 mm 0.08 in2.0 mm
02:45 PM 57.0°F13.9°C 56.8°F13.8°C 99% 3.1 mph WSW5.0 kmh WSW 11.4 mph18.3 kmh 29.52 in999.7 mb 0.02 in0.5 mm 0.00 in0.0 mm 0.08 in2.0 mm
02:40 PM 57.0°F13.9°C 56.8°F13.8°C 99% 3.1 mph ENE5.0 kmh ENE 11.4 mph18.3 kmh 29.52 in999.7 mb 0.02 in0.5 mm 0.00 in0.0 mm 0.08 in2.0 mm
02:35 PM 57.0°F13.9°C 56.8°F13.8°C 99% 8.3 mph E13.4 kmh E 11.4 mph18.3 kmh 29.52 in999.7 mb 0.02 in0.5 mm 0.12 in3.0 mm 0.08 in2.0 mm
02:30 PM 56.8°F13.8°C 56.6°F13.7°C 99% 3.1 mph WSW5.0 kmh WSW 9.8 mph15.8 kmh 29.53 in1000.0 mb 0.01 in0.3 mm 0.00 in0.0 mm 0.07 in1.8 mm
02:25 PM 56.8°F13.8°C 56.6°F13.7°C 99% 3.1 mph W5.0 kmh W 11.4 mph18.3 kmh 29.53 in1000.0 mb 0.01 in0.3 mm 0.00 in0.0 mm 0.07 in1.8 mm
02:20 PM 57.0°F13.9°C 56.8°F13.8°C 99% 6.0 mph WSW9.7 kmh WSW 11.4 mph18.3 kmh 29.54 in1000.3 mb 0.02 in0.5 mm 0.00 in0.0 mm 0.07 in1.8 mm
02:15 PM 56.8°F13.8°C 56.6°F13.7°C 99% 3.1 mph WSW5.0 kmh WSW 10.7 mph17.2 kmh 29.54 in1000.3 mb 0.04 in1.0 mm 0.00 in0.0 mm 0.07 in1.8 mm
02:10 PM 57.0°F13.9°C 56.8°F13.8°C 99% 3.1 mph W5.0 kmh W 10.7 mph17.2 kmh 29.54 in1000.3 mb 0.04 in1.0 mm 0.00 in0.0 mm 0.07 in1.8 mm
02:05 PM 57.0°F13.9°C 56.8°F13.8°C 99% 5.4 mph WSW8.7 kmh WSW 10.7 mph17.2 kmh 29.54 in1000.3 mb 0.05 in1.3 mm 0.00 in0.0 mm 0.07 in1.8 mm
02:00 PM 57.2°F14.0°C 56.9°F13.8°C 99% 5.4 mph SW8.7 kmh SW 9.2 mph14.8 kmh 29.55 in1000.7 mb 0.05 in1.3 mm 0.00 in0.0 mm 0.07 in1.8 mm
01:55 PM 57.2°F14.0°C 56.9°F13.8°C 99% 3.8 mph SW6.1 kmh SW 9.8 mph15.8 kmh 29.55 in1000.7 mb 0.05 in1.3 mm 0.00 in0.0 mm 0.06 in1.5 mm
01:50 PM 57.2°F14.0°C 56.9°F13.8°C 99% 4.5 mph WSW7.2 kmh WSW 13.0 mph20.9 kmh 29.55 in1000.7 mb 0.05 in1.3 mm 0.00 in0.0 mm 0.06 in1.5 mm
01:45 PM 57.2°F14.0°C 56.9°F13.8°C 99% 3.1 mph WSW5.0 kmh WSW 13.0 mph20.9 kmh 29.55 in1000.7 mb 0.05 in1.3 mm 0.00 in0.0 mm 0.06 in1.5 mm
01:40 PM 57.2°F14.0°C 57.2°F14.0°C 100% 1.6 mph W2.6 kmh W 8.3 mph13.4 kmh 29.55 in1000.7 mb 0.05 in1.3 mm 0.00 in0.0 mm 0.06 in1.5 mm
01:35 PM 57.4°F14.1°C 57.4°F14.1°C 100% 3.1 mph NW5.0 kmh NW 6.9 mph11.1 kmh 29.55 in1000.7 mb 0.06 in1.5 mm 0.00 in0.0 mm 0.06 in1.5 mm
01:30 PM 57.4°F14.1°C 57.4°F14.1°C 100% 3.8 mph WNW6.1 kmh WNW 6.9 mph11.1 kmh 29.56 in1001.0 mb 0.06 in1.5 mm 0.12 in3.0 mm 0.06 in1.5 mm
01:25 PM 57.4°F14.1°C 57.4°F14.1°C 100% 3.1 mph WNW5.0 kmh WNW 6.9 mph11.1 kmh 29.56 in1001.0 mb 0.05 in1.3 mm 0.00 in0.0 mm 0.05 in1.3 mm
01:20 PM 57.4°F14.1°C 57.4°F14.1°C 100% 3.1 mph W5.0 kmh W 13.0 mph20.9 kmh 29.56 in1001.0 mb 0.05 in1.3 mm 0.12 in3.0 mm 0.05 in1.3 mm
01:15 PM 57.4°F14.1°C 56.5°F13.6°C 97% 3.1 mph W5.0 kmh W 15.2 mph24.5 kmh 29.56 in1001.0 mb 0.04 in1.0 mm 0.00 in0.0 mm 0.04 in1.0 mm
01:10 PM 57.4°F14.1°C 56.5°F13.6°C 97% 6.9 mph WNW11.1 kmh WNW 15.2 mph24.5 kmh 29.56 in1001.0 mb 0.04 in1.0 mm 0.24 in6.1 mm 0.04 in1.0 mm
01:05 PM 57.4°F14.1°C 56.3°F13.5°C 96% 3.8 mph NW6.1 kmh NW 9.2 mph14.8 kmh 29.56 in1001.0 mb 0.02 in0.5 mm 0.00 in0.0 mm 0.02 in0.5 mm
01:00 PM 57.7°F14.3°C 56.6°F13.7°C 96% 3.8 mph WNW6.1 kmh WNW 9.2 mph14.8 kmh 29.57 in1001.4 mb 0.02 in0.5 mm 0.01 in0.3 mm 0.02 in0.5 mm
12:55 PM 57.9°F14.4°C 56.5°F13.6°C 95% 4.5 mph W7.2 kmh W 9.2 mph14.8 kmh 29.57 in1001.4 mb 0.01 in0.3 mm 0.00 in0.0 mm 0.01 in0.3 mm
12:50 PM 58.3°F14.6°C 56.6°F13.7°C 94% 3.1 mph NW5.0 kmh NW 9.2 mph14.8 kmh 29.58 in1001.7 mb 0.01 in0.3 mm 0.00 in0.0 mm 0.01 in0.3 mm
12:45 PM 58.6°F14.8°C 56.9°F13.8°C 94% 3.8 mph WNW6.1 kmh WNW 10.7 mph17.2 kmh 29.57 in1001.4 mb 0.01 in0.3 mm 0.00 in0.0 mm 0.01 in0.3 mm
12:40 PM 59.0°F15.0°C 57.0°F13.9°C 93% 4.5 mph WNW7.2 kmh WNW 10.7 mph17.2 kmh 29.58 in1001.7 mb 0.01 in0.3 mm 0.12 in3.0 mm 0.01 in0.3 mm
12:35 PM 58.8°F14.9°C 57.1°F13.9°C 94% 3.1 mph NW5.0 kmh NW 6.9 mph11.1 kmh 29.58 in1001.7 mb 0.00 in0.0 mm 0.00 in0.0 mm 0.00 in0.0 mm
12:30 PM 58.6°F14.8°C 56.9°F13.8°C 94% 3.1 mph WSW5.0 kmh WSW 9.2 mph14.8 kmh 29.58 in1001.7 mb 0.00 in0.0 mm 0.00 in0.0 mm 0.00 in0.0 mm
12:25 PM 58.6°F14.8°C 56.9°F13.8°C 94% 2.2 mph WSW3.5 kmh WSW 9.2 mph14.8 kmh 29.58 in1001.7 mb 0.00 in0.0 mm 0.00 in0.0 mm 0.00 in0.0 mm
12:20 PM 58.8°F14.9°C 57.1°F13.9°C 94% 1.6 mph WSW2.6 kmh WSW 9.2 mph14.8 kmh 29.58 in1001.7 mb 0.00 in0.0 mm 0.00 in0.0 mm 0.00 in0.0 mm
12:15 PM 58.8°F14.9°C 57.1°F13.9°C 94% 3.1 mph WSW5.0 kmh WSW 9.2 mph14.8 kmh 29.59 in1002.0 mb 0.00 in0.0 mm 0.00 in0.0 mm 0.00 in0.0 mm
12:10 PM 59.0°F15.0°C 57.0°F13.9°C 93% 4.5 mph W7.2 kmh W 8.3 mph13.4 kmh 29.59 in1002.0 mb 0.00 in0.0 mm 0.00 in0.0 mm 0.00 in0.0 mm
12:05 PM 59.0°F15.0°C 57.0°F13.9°C 93% 4.5 mph W7.2 kmh W 8.3 mph13.4 kmh 29.59 in1002.0 mb 0.00 in0.0 mm 0.00 in0.0 mm 0.00 in0.0 mm
12:00 PM 59.0°F15.0°C 57.0°F13.9°C 93% 2.2 mph W3.5 kmh W 8.3 mph13.4 kmh 29.59 in1002.0 mb 0.00 in0.0 mm 0.00 in0.0 mm 0.00 in0.0 mm
11:55 AM 59.0°F15.0°C 57.0°F13.9°C 93% 2.2 mph NW3.5 kmh NW 7.6 mph12.2 kmh 29.60 in1002.4 mb 0.00 in0.0 mm 0.00 in0.0 mm 0.00 in0.0 mm
11:50 AM 59.0°F15.0°C 56.7°F13.7°C 92% 3.1 mph NW5.0 kmh NW 9.2 mph14.8 kmh 29.60 in1002.4 mb 0.00 in0.0 mm 0.00 in0.0 mm 0.00 in0.0 mm
11:45 AM 59.0°F15.0°C 56.4°F13.6°C 91% 2.2 mph WSW3.5 kmh WSW 9.2 mph14.8 kmh 29.60 in1002.4 mb 0.00 in0.0 mm 0.00 in0.0 mm 0.00 in0.0 mm
11:40 AM 59.4°F15.2°C 56.4°F13.6°C 90% 2.2 mph WSW3.5 kmh WSW 8.3 mph13.4 kmh 29.60 in1002.4 mb 0.00 in0.0 mm 0.00 in0.0 mm 0.00 in0.0 mm
11:35 AM 59.7°F15.4°C 56.5°F13.6°C 89% 2.2 mph WNW3.5 kmh WNW 7.6 mph12.2 kmh 29.61 in1002.7 mb 0.00 in0.0 mm 0.00 in0.0 mm 0.00 in0.0 mm
11:30 AM 59.7°F15.4°C 56.5°F13.6°C 89% 3.1 mph W5.0 kmh W 7.6 mph12.2 kmh 29.60 in1002.4 mb 0.00 in0.0 mm 0.00 in0.0 mm 0.00 in0.0 mm
11:25 AM 59.5°F15.3°C 56.3°F13.5°C 89% 2.2 mph W3.5 kmh W 7.6 mph12.2 kmh 29.61 in1002.7 mb 0.00 in0.0 mm 0.00 in0.0 mm 0.00 in0.0 mm
11:20 AM 59.4°F15.2°C 56.1°F13.4°C 89% 2.2 mph W3.5 kmh W 7.6 mph12.2 kmh 29.61 in1002.7 mb 0.00 in0.0 mm 0.00 in0.0 mm 0.00 in0.0 mm
11:15 AM 59.2°F15.1°C 56.3°F13.5°C 90% 2.2 mph W3.5 kmh W 6.9 mph11.1 kmh 29.61 in1002.7 mb 0.00 in0.0 mm 0.00 in0.0 mm 0.00 in0.0 mm
11:10 AM 59.2°F15.1°C 56.0°F13.3°C 89% 3.8 mph W6.1 kmh W 6.9 mph11.1 kmh 29.62 in1003.0 mb 0.00 in0.0 mm 0.00 in0.0 mm 0.00 in0.0 mm
11:05 AM 59.2°F15.1°C 56.0°F13.3°C 89% 3.1 mph WNW5.0 kmh WNW 10.7 mph17.2 kmh 29.61 in1002.7 mb 0.00 in0.0 mm 0.00 in0.0 mm 0.00 in0.0 mm
11:00 AM 59.2°F15.1°C 56.0°F13.3°C 89% 4.5 mph WSW7.2 kmh WSW 10.7 mph17.2 kmh 29.62 in1003.0 mb 0.00 in0.0 mm 0.00 in0.0 mm 0.00 in0.0 mm
10:55 AM 59.2°F15.1°C 55.6°F13.1°C 88% 3.8 mph SW6.1 kmh SW 9.8 mph15.8 kmh 29.62 in1003.0 mb 0.00 in0.0 mm 0.00 in0.0 mm 0.00 in0.0 mm
10:50 AM 59.4°F15.2°C 55.8°F13.2°C 88% 3.1 mph WNW5.0 kmh WNW 7.6 mph12.2 kmh 29.62 in1003.0 mb 0.00 in0.0 mm 0.00 in0.0 mm 0.00 in0.0 mm
10:45 AM 59.4°F15.2°C 56.1°F13.4°C 89% 3.1 mph WNW5.0 kmh WNW 6.9 mph11.1 kmh 29.62 in1003.0 mb 0.00 in0.0 mm 0.00 in0.0 mm 0.00 in0.0 mm
10:40 AM 59.2°F15.1°C 56.3°F13.5°C 90% 3.1 mph WSW5.0 kmh WSW 6.9 mph11.1 kmh 29.62 in1003.0 mb 0.00 in0.0 mm 0.00 in0.0 mm 0.00 in0.0 mm
10:35 AM 58.8°F14.9°C 56.2°F13.4°C 91% 2.2 mph WSW3.5 kmh WSW 8.3 mph13.4 kmh 29.63 in1003.4 mb 0.00 in0.0 mm 0.00 in0.0 mm 0.00 in0.0 mm
10:30 AM 58.5°F14.7°C 55.5°F13.1°C 90% 2.2 mph WSW3.5 kmh WSW 8.3 mph13.4 kmh 29.63 in1003.4 mb 0.00 in0.0 mm 0.00 in0.0 mm 0.00 in0.0 mm
10:25 AM 58.5°F14.7°C 55.2°F12.9°C 89% 1.6 mph WSW2.6 kmh WSW 5.4 mph8.7 kmh 29.63 in1003.4 mb 0.00 in0.0 mm 0.00 in0.0 mm 0.00 in0.0 mm
10:20 AM 58.5°F14.7°C 54.9°F12.7°C 88% 1.6 mph W2.6 kmh W 5.4 mph8.7 kmh 29.64 in1003.7 mb 0.00 in0.0 mm 0.00 in0.0 mm 0.00 in0.0 mm
10:15 AM 58.5°F14.7°C 54.9°F12.7°C 88% 1.6 mph W2.6 kmh W 5.4 mph8.7 kmh 29.64 in1003.7 mb 0.00 in0.0 mm 0.00 in0.0 mm 0.00 in0.0 mm
10:10 AM 58.5°F14.7°C 54.9°F12.7°C 88% 1.6 mph WNW2.6 kmh WNW 5.4 mph8.7 kmh 29.64 in1003.7 mb 0.00 in0.0 mm 0.00 in0.0 mm 0.00 in0.0 mm
10:05 AM 58.3°F14.6°C 54.4°F12.4°C 87% 3.1 mph WNW5.0 kmh WNW 6.9 mph11.1 kmh 29.65 in1004.1 mb 0.00 in0.0 mm 0.00 in0.0 mm 0.00 in0.0 mm
10:00 AM 57.9°F14.4°C 53.8°F12.1°C 86% 1.6 mph WNW2.6 kmh WNW 6.9 mph11.1 kmh 29.65 in1004.1 mb 0.00 in0.0 mm 0.00 in0.0 mm 0.00 in0.0 mm
09:55 AM 58.1°F14.5°C 53.9°F12.2°C 86% 2.2 mph NW3.5 kmh NW 6.9 mph11.1 kmh 29.65 in1004.1 mb 0.00 in0.0 mm 0.00 in0.0 mm 0.00 in0.0 mm
09:50 AM 57.9°F14.4°C 53.8°F12.1°C 86% 0.7 mph NNW1.1 kmh NNW 6.9 mph11.1 kmh 29.64 in1003.7 mb 0.00 in0.0 mm 0.00 in0.0 mm 0.00 in0.0 mm
09:45 AM 57.9°F14.4°C 53.8°F12.1°C 86% 2.2 mph NW3.5 kmh NW 4.5 mph7.2 kmh 29.65 in1004.1 mb 0.00 in0.0 mm 0.00 in0.0 mm 0.00 in0.0 mm
09:40 AM 57.9°F14.4°C 53.4°F11.9°C 85% 2.2 mph W3.5 kmh W 5.4 mph8.7 kmh 29.65 in1004.1 mb 0.00 in0.0 mm 0.00 in0.0 mm 0.00 in0.0 mm
09:35 AM 57.9°F14.4°C 53.1°F11.7°C 84% 1.6 mph W2.6 kmh W 5.4 mph8.7 kmh 29.65 in1004.1 mb 0.00 in0.0 mm 0.00 in0.0 mm 0.00 in0.0 mm
09:30 AM 58.3°F14.6°C 53.2°F11.8°C 83% 2.2 mph W3.5 kmh W 6.9 mph11.1 kmh 29.65 in1004.1 mb 0.00 in0.0 mm 0.00 in0.0 mm 0.00 in0.0 mm
09:25 AM 58.3°F14.6°C 53.2°F11.8°C 83% 0.7 mph W1.1 kmh W 6.9 mph11.1 kmh 29.65 in1004.1 mb 0.00 in0.0 mm 0.00 in0.0 mm 0.00 in0.0 mm
09:20 AM 58.5°F14.7°C 53.3°F11.8°C 83% 1.6 mph WNW2.6 kmh WNW 4.5 mph7.2 kmh 29.65 in1004.1 mb 0.00 in0.0 mm 0.00 in0.0 mm 0.00 in0.0 mm
09:15 AM 58.3°F14.6°C 52.8°F11.6°C 82% Calm Calm 5.4 mph8.7 kmh 29.65 in1004.1 mb 0.00 in0.0 mm 0.00 in0.0 mm 0.00 in0.0 mm
09:10 AM 57.9°F14.4°C 52.5°F11.4°C 82% 1.6 mph WSW2.6 kmh WSW 5.4 mph8.7 kmh 29.66 in1004.4 mb 0.00 in0.0 mm 0.00 in0.0 mm 0.00 in0.0 mm
09:05 AM 57.9°F14.4°C 52.8°F11.6°C 83% 2.2 mph NW3.5 kmh NW 5.4 mph8.7 kmh 29.65 in1004.1 mb 0.00 in0.0 mm 0.00 in0.0 mm 0.00 in0.0 mm
09:00 AM 57.7°F14.3°C 52.6°F11.4°C 83% 1.6 mph W2.6 kmh W 3.8 mph6.1 kmh 29.65 in1004.1 mb 0.00 in0.0 mm 0.00 in0.0 mm 0.00 in0.0 mm
08:55 AM 57.4°F14.1°C 52.3°F11.3°C 83% 0.7 mph WSW1.1 kmh WSW 3.8 mph6.1 kmh 29.65 in1004.1 mb 0.00 in0.0 mm 0.00 in0.0 mm 0.00 in0.0 mm
08:50 AM 57.0°F13.9°C 52.6°F11.4°C 85% 1.6 mph WNW2.6 kmh WNW 3.1 mph5.0 kmh 29.65 in1004.1 mb 0.00 in0.0 mm 0.00 in0.0 mm 0.00 in0.0 mm
08:45 AM 56.7°F13.7°C 52.2°F11.2°C 85% 0.7 mph NW1.1 kmh NW 3.1 mph5.0 kmh 29.65 in1004.1 mb 0.00 in0.0 mm 0.00 in0.0 mm 0.00 in0.0 mm
08:40 AM 56.3°F13.5°C 51.9°F11.1°C 85% Calm Calm 3.1 mph5.0 kmh 29.65 in1004.1 mb 0.00 in0.0 mm 0.00 in0.0 mm 0.00 in0.0 mm
08:35 AM 55.9°F13.3°C 51.5°F10.8°C 85% 0.7 mph WNW1.1 kmh WNW 3.1 mph5.0 kmh 29.65 in1004.1 mb 0.00 in0.0 mm 0.00 in0.0 mm 0.00 in0.0 mm
08:30 AM 55.8°F13.2°C 51.3°F10.7°C 85% 1.6 mph NW2.6 kmh NW 3.1 mph5.0 kmh 29.65 in1004.1 mb 0.00 in0.0 mm 0.00 in0.0 mm 0.00 in0.0 mm
08:25 AM 55.4°F13.0°C 50.7°F10.4°C 84% 0.7 mph NW1.1 kmh NW 3.1 mph5.0 kmh 29.65 in1004.1 mb 0.00 in0.0 mm 0.00 in0.0 mm 0.00 in0.0 mm
08:20 AM 55.4°F13.0°C 50.7°F10.4°C 84% 2.2 mph W3.5 kmh W 3.1 mph5.0 kmh 29.65 in1004.1 mb 0.00 in0.0 mm 0.00 in0.0 mm 0.00 in0.0 mm
08:15 AM 55.2°F12.9°C 50.5°F10.3°C 84% 0.7 mph W1.1 kmh W 3.1 mph5.0 kmh 29.65 in1004.1 mb 0.00 in0.0 mm 0.00 in0.0 mm 0.00 in0.0 mm
08:10 AM 54.9°F12.7°C 50.4°F10.2°C 85% 1.6 mph W2.6 kmh W 3.1 mph5.0 kmh 29.65 in1004.1 mb 0.00 in0.0 mm 0.00 in0.0 mm 0.00 in0.0 mm
08:05 AM 54.5°F12.5°C 50.1°F10.1°C 85% 0.7 mph WNW1.1 kmh WNW 2.2 mph3.5 kmh 29.66 in1004.4 mb 0.00 in0.0 mm 0.00 in0.0 mm 0.00 in0.0 mm
08:00 AM 54.3°F12.4°C 49.9°F9.9°C 85% 0.7 mph WNW1.1 kmh WNW 3.1 mph5.0 kmh 29.66 in1004.4 mb 0.00 in0.0 mm 0.00 in0.0 mm 0.00 in0.0 mm
07:55 AM 54.1°F12.3°C 49.7°F9.8°C 85% Calm Calm 3.1 mph5.0 kmh 29.65 in1004.1 mb 0.00 in0.0 mm 0.00 in0.0 mm 0.00 in0.0 mm
07:50 AM 54.1°F12.3°C 49.7°F9.8°C 85% 1.6 mph NW2.6 kmh NW 4.5 mph7.2 kmh 29.65 in1004.1 mb 0.00 in0.0 mm 0.00 in0.0 mm 0.00 in0.0 mm
07:45 AM 54.0°F12.2°C 49.6°F9.8°C 85% 1.6 mph NW2.6 kmh NW 4.5 mph7.2 kmh 29.65 in1004.1 mb 0.00 in0.0 mm 0.00 in0.0 mm 0.00 in0.0 mm
07:40 AM 53.8°F12.1°C 49.7°F9.8°C 86% 0.7 mph WNW1.1 kmh WNW 3.8 mph6.1 kmh 29.65 in1004.1 mb 0.00 in0.0 mm 0.00 in0.0 mm 0.00 in0.0 mm
07:35 AM 53.6°F12.0°C 49.8°F9.9°C 87% 1.6 mph WNW2.6 kmh WNW 3.8 mph6.1 kmh 29.65 in1004.1 mb 0.00 in0.0 mm 0.00 in0.0 mm 0.00 in0.0 mm
07:30 AM 53.4°F11.9°C 50.3°F10.2°C 89% Calm Calm 2.2 mph3.5 kmh 29.65 in1004.1 mb 0.00 in0.0 mm 0.00 in0.0 mm 0.00 in0.0 mm
07:25 AM 53.2°F11.8°C 50.4°F10.2°C 90% 0.7 mph WNW1.1 kmh WNW 3.1 mph5.0 kmh 29.65 in1004.1 mb 0.00 in0.0 mm 0.00 in0.0 mm 0.00 in0.0 mm
07:20 AM 53.1°F11.7°C 50.2°F10.1°C 90% 0.7 mph NW1.1 kmh NW 3.1 mph5.0 kmh 29.65 in1004.1 mb 0.00 in0.0 mm 0.00 in0.0 mm 0.00 in0.0 mm
07:15 AM 52.9°F11.6°C 50.6°F10.3°C 92% 0.7 mph WNW1.1 kmh WNW 2.2 mph3.5 kmh 29.65 in1004.1 mb 0.00 in0.0 mm 0.00 in0.0 mm 0.00 in0.0 mm
07:10 AM 52.7°F11.5°C 50.7°F10.4°C 93% 0.7 mph WNW1.1 kmh WNW 1.6 mph2.6 kmh 29.66 in1004.4 mb 0.00 in0.0 mm 0.00 in0.0 mm 0.00 in0.0 mm
07:05 AM 52.5°F11.4°C 50.8°F10.4°C 94% Calm Calm 1.6 mph2.6 kmh 29.66 in1004.4 mb 0.00 in0.0 mm 0.00 in0.0 mm 0.00 in0.0 mm
07:00 AM 52.3°F11.3°C 50.7°F10.4°C 94% Calm Calm 2.2 mph3.5 kmh 29.66 in1004.4 mb 0.00 in0.0 mm 0.00 in0.0 mm 0.00 in0.0 mm
06:55 AM 52.0°F11.1°C 50.6°F10.3°C 95% Calm Calm 2.2 mph3.5 kmh 29.66 in1004.4 mb 0.00 in0.0 mm 0.00 in0.0 mm 0.00 in0.0 mm
06:50 AM 51.8°F11.0°C 50.4°F10.2°C 95% 0.7 mph WNW1.1 kmh WNW 2.2 mph3.5 kmh 29.66 in1004.4 mb 0.00 in0.0 mm 0.00 in0.0 mm 0.00 in0.0 mm
06:45 AM 51.6°F10.9°C 50.8°F10.4°C 97% 0.7 mph NW1.1 kmh NW 2.2 mph3.5 kmh 29.66 in1004.4 mb 0.00 in0.0 mm 0.00 in0.0 mm 0.00 in0.0 mm
06:40 AM 51.4°F10.8°C 50.6°F10.3°C 97% 0.7 mph NW1.1 kmh NW 2.2 mph3.5 kmh 29.66 in1004.4 mb 0.00 in0.0 mm 0.00 in0.0 mm 0.00 in0.0 mm
06:35 AM 51.4°F10.8°C 50.6°F10.3°C 97% Calm Calm 1.6 mph2.6 kmh 29.66 in1004.4 mb 0.00 in0.0 mm 0.00 in0.0 mm 0.00 in0.0 mm
06:30 AM 51.3°F10.7°C 50.4°F10.2°C 97% Calm Calm 1.6 mph2.6 kmh 29.66 in1004.4 mb 0.00 in0.0 mm 0.00 in0.0 mm 0.00 in0.0 mm
06:25 AM 51.1°F10.6°C 50.3°F10.2°C 97% Calm Calm 1.6 mph2.6 kmh 29.66 in1004.4 mb 0.00 in0.0 mm 0.00 in0.0 mm 0.00 in0.0 mm
06:20 AM 51.1°F10.6°C 50.3°F10.2°C 97% Calm Calm 1.6 mph2.6 kmh 29.65 in1004.1 mb 0.00 in0.0 mm 0.00 in0.0 mm 0.00 in0.0 mm
06:15 AM 51.1°F10.6°C 50.3°F10.2°C 97% Calm Calm 1.6 mph2.6 kmh 29.65 in1004.1 mb 0.00 in0.0 mm 0.00 in0.0 mm 0.00 in0.0 mm
06:10 AM 51.1°F10.6°C 50.3°F10.2°C 97% Calm Calm 2.2 mph3.5 kmh 29.65 in1004.1 mb 0.00 in0.0 mm 0.00 in0.0 mm 0.00 in0.0 mm
06:05 AM 50.9°F10.5°C 50.1°F10.1°C 97% 0.7 mph WNW1.1 kmh WNW 2.2 mph3.5 kmh 29.65 in1004.1 mb 0.00 in0.0 mm 0.00 in0.0 mm 0.00 in0.0 mm
06:00 AM 51.1°F10.6°C 50.0°F10.0°C 96% Calm Calm 1.6 mph2.6 kmh 29.65 in1004.1 mb 0.00 in0.0 mm 0.00 in0.0 mm 0.00 in0.0 mm
05:55 AM 50.9°F10.5°C 49.8°F9.9°C 96% Calm Calm 1.6 mph2.6 kmh 29.65 in1004.1 mb 0.00 in0.0 mm 0.00 in0.0 mm 0.00 in0.0 mm
05:50 AM 51.1°F10.6°C 50.0°F10.0°C 96% Calm Calm 0.7 mph1.1 kmh 29.65 in1004.1 mb 0.00 in0.0 mm 0.00 in0.0 mm 0.00 in0.0 mm
05:45 AM 51.1°F10.6°C 50.0°F10.0°C 96% Calm Calm 2.2 mph3.5 kmh 29.65 in1004.1 mb 0.00 in0.0 mm 0.00 in0.0 mm 0.00 in0.0 mm
05:40 AM 51.1°F10.6°C 50.0°F10.0°C 96% Calm Calm 2.2 mph3.5 kmh 29.66 in1004.4 mb 0.00 in0.0 mm 0.00 in0.0 mm 0.00 in0.0 mm
05:35 AM 51.1°F10.6°C 50.0°F10.0°C 96% Calm Calm 1.6 mph2.6 kmh 29.65 in1004.1 mb 0.00 in0.0 mm 0.00 in0.0 mm 0.00 in0.0 mm
05:30 AM 51.1°F10.6°C 50.0°F10.0°C 96% Calm Calm 0.7 mph1.1 kmh 29.65 in1004.1 mb 0.00 in0.0 mm 0.00 in0.0 mm 0.00 in0.0 mm
05:25 AM 51.1°F10.6°C 49.7°F9.8°C 95% Calm Calm 0.7 mph1.1 kmh 29.65 in1004.1 mb 0.00 in0.0 mm 0.00 in0.0 mm 0.00 in0.0 mm
05:20 AM 51.1°F10.6°C 49.7°F9.8°C 95% Calm Calm 0.7 mph1.1 kmh 29.65 in1004.1 mb 0.00 in0.0 mm 0.00 in0.0 mm 0.00 in0.0 mm
05:15 AM 51.3°F10.7°C 49.9°F9.9°C 95% Calm Calm 0.7 mph1.1 kmh 29.65 in1004.1 mb 0.00 in0.0 mm 0.00 in0.0 mm 0.00 in0.0 mm
05:10 AM 51.4°F10.8°C 50.1°F10.1°C 95% Calm Calm 0.7 mph1.1 kmh 29.65 in1004.1 mb 0.00 in0.0 mm 0.00 in0.0 mm 0.00 in0.0 mm
05:05 AM 51.4°F10.8°C 50.1°F10.1°C 95% Calm Calm 0.7 mph1.1 kmh 29.65 in1004.1 mb 0.00 in0.0 mm 0.00 in0.0 mm 0.00 in0.0 mm
05:00 AM 51.6°F10.9°C 50.2°F10.1°C 95% Calm Calm 0.7 mph1.1 kmh 29.66 in1004.4 mb 0.00 in0.0 mm 0.00 in0.0 mm 0.00 in0.0 mm
04:55 AM 51.6°F10.9°C 50.2°F10.1°C 95% Calm Calm 0.7 mph1.1 kmh 29.66 in1004.4 mb 0.00 in0.0 mm 0.00 in0.0 mm 0.00 in0.0 mm
04:50 AM 51.6°F10.9°C 50.2°F10.1°C 95% Calm Calm 2.2 mph3.5 kmh 29.66 in1004.4 mb 0.00 in0.0 mm 0.00 in0.0 mm 0.00 in0.0 mm
04:45 AM 51.6°F10.9°C 50.2°F10.1°C 95% Calm Calm 2.2 mph3.5 kmh 29.66 in1004.4 mb 0.00 in0.0 mm 0.00 in0.0 mm 0.00 in0.0 mm
04:40 AM 51.6°F10.9°C 50.0°F10.0°C 94% Calm Calm 1.6 mph2.6 kmh 29.66 in1004.4 mb 0.00 in0.0 mm 0.00 in0.0 mm 0.00 in0.0 mm
04:35 AM 51.4°F10.8°C 49.8°F9.9°C 94% 0.7 mph WSW1.1 kmh WSW 1.6 mph2.6 kmh 29.66 in1004.4 mb 0.00 in0.0 mm 0.00 in0.0 mm 0.00 in0.0 mm
04:30 AM 51.8°F11.0°C 49.8°F9.9°C 93% 0.7 mph W1.1 kmh W 2.2 mph3.5 kmh 29.66 in1004.4 mb 0.00 in0.0 mm 0.00 in0.0 mm 0.00 in0.0 mm
04:25 AM 51.8°F11.0°C 49.8°F9.9°C 93% Calm Calm 3.1 mph5.0 kmh 29.66 in1004.4 mb 0.00 in0.0 mm 0.00 in0.0 mm 0.00 in0.0 mm
04:20 AM 51.8°F11.0°C 49.8°F9.9°C 93% Calm Calm 3.1 mph5.0 kmh 29.66 in1004.4 mb 0.00 in0.0 mm 0.00 in0.0 mm 0.00 in0.0 mm
04:15 AM 51.8°F11.0°C 49.8°F9.9°C 93% 1.6 mph WNW2.6 kmh WNW 2.2 mph3.5 kmh 29.66 in1004.4 mb 0.00 in0.0 mm 0.00 in0.0 mm 0.00 in0.0 mm
04:10 AM 52.0°F11.1°C 50.0°F10.0°C 93% Calm Calm 2.2 mph3.5 kmh 29.66 in1004.4 mb 0.00 in0.0 mm 0.00 in0.0 mm 0.00 in0.0 mm
04:05 AM 51.8°F11.0°C 49.8°F9.9°C 93% Calm Calm 3.1 mph5.0 kmh 29.66 in1004.4 mb 0.00 in0.0 mm 0.00 in0.0 mm 0.00 in0.0 mm
04:00 AM 52.0°F11.1°C 50.0°F10.0°C 93% 0.7 mph W1.1 kmh W 3.1 mph5.0 kmh 29.66 in1004.4 mb 0.00 in0.0 mm 0.00 in0.0 mm 0.00 in0.0 mm
03:55 AM 52.0°F11.1°C 50.0°F10.0°C 93% 1.6 mph W2.6 kmh W 3.1 mph5.0 kmh 29.66 in1004.4 mb 0.00 in0.0 mm 0.00 in0.0 mm 0.00 in0.0 mm
03:50 AM 52.0°F11.1°C 50.0°F10.0°C 93% Calm Calm 3.1 mph5.0 kmh 29.66 in1004.4 mb 0.00 in0.0 mm 0.00 in0.0 mm 0.00 in0.0 mm
03:45 AM 52.0°F11.1°C 50.0°F10.0°C 93% 0.7 mph W1.1 kmh W 3.1 mph5.0 kmh 29.66 in1004.4 mb 0.00 in0.0 mm 0.00 in0.0 mm 0.00 in0.0 mm
03:40 AM 52.0°F11.1°C 50.0°F10.0°C 93% 0.7 mph W1.1 kmh W 3.1 mph5.0 kmh 29.66 in1004.4 mb 0.00 in0.0 mm 0.00 in0.0 mm 0.00 in0.0 mm
03:35 AM 52.0°F11.1°C 50.0°F10.0°C 93% 1.6 mph WSW2.6 kmh WSW 3.1 mph5.0 kmh 29.67 in1004.7 mb 0.00 in0.0 mm 0.00 in0.0 mm 0.00 in0.0 mm
03:30 AM 52.0°F11.1°C 50.0°F10.0°C 93% Calm Calm 0.7 mph1.1 kmh 29.66 in1004.4 mb 0.00 in0.0 mm 0.00 in0.0 mm 0.00 in0.0 mm
03:25 AM 52.0°F11.1°C 49.7°F9.8°C 92% Calm Calm 2.2 mph3.5 kmh 29.66 in1004.4 mb 0.00 in0.0 mm 0.00 in0.0 mm 0.00 in0.0 mm
03:20 AM 52.0°F11.1°C 49.7°F9.8°C 92% Calm Calm 3.8 mph6.1 kmh 29.66 in1004.4 mb 0.00 in0.0 mm 0.00 in0.0 mm 0.00 in0.0 mm
03:15 AM 52.0°F11.1°C 49.7°F9.8°C 92% Calm Calm 3.8 mph6.1 kmh 29.66 in1004.4 mb 0.00 in0.0 mm 0.00 in0.0 mm 0.00 in0.0 mm
03:10 AM 52.0°F11.1°C 49.7°F9.8°C 92% 2.2 mph W3.5 kmh W 3.8 mph6.1 kmh 29.66 in1004.4 mb 0.00 in0.0 mm 0.00 in0.0 mm 0.00 in0.0 mm
03:05 AM 52.0°F11.1°C 49.7°F9.8°C 92% 0.7 mph W1.1 kmh W 3.8 mph6.1 kmh 29.66 in1004.4 mb 0.00 in0.0 mm 0.00 in0.0 mm 0.00 in0.0 mm
03:00 AM 52.3°F11.3°C 49.8°F9.9°C 91% 1.6 mph WSW2.6 kmh WSW 3.8 mph6.1 kmh 29.65 in1004.1 mb 0.00 in0.0 mm 0.00 in0.0 mm 0.00 in0.0 mm
02:55 AM 52.3°F11.3°C 49.8°F9.9°C 91% 0.7 mph WSW1.1 kmh WSW 4.5 mph7.2 kmh 29.66 in1004.4 mb 0.00 in0.0 mm 0.00 in0.0 mm 0.00 in0.0 mm
02:50 AM 52.3°F11.3°C 49.8°F9.9°C 91% Calm Calm 6.0 mph9.7 kmh 29.66 in1004.4 mb 0.00 in0.0 mm 0.00 in0.0 mm 0.00 in0.0 mm
02:45 AM 52.5°F11.4°C 50.0°F10.0°C 91% 0.7 mph NW1.1 kmh NW 6.0 mph9.7 kmh 29.65 in1004.1 mb 0.00 in0.0 mm 0.00 in0.0 mm 0.00 in0.0 mm
02:40 AM 52.7°F11.5°C 50.2°F10.1°C 91% 1.6 mph NW2.6 kmh NW 6.9 mph11.1 kmh 29.65 in1004.1 mb 0.00 in0.0 mm 0.00 in0.0 mm 0.00 in0.0 mm
02:35 AM 52.9°F11.6°C 50.3°F10.2°C 91% 0.7 mph NW1.1 kmh NW 6.9 mph11.1 kmh 29.65 in1004.1 mb 0.00 in0.0 mm 0.00 in0.0 mm 0.00 in0.0 mm
02:30 AM 52.9°F11.6°C 50.3°F10.2°C 91% 2.2 mph WNW3.5 kmh WNW 6.9 mph11.1 kmh 29.65 in1004.1 mb 0.00 in0.0 mm 0.00 in0.0 mm 0.00 in0.0 mm
02:25 AM 53.1°F11.7°C 50.5°F10.3°C 91% 1.6 mph W2.6 kmh W 6.0 mph9.7 kmh 29.65 in1004.1 mb 0.00 in0.0 mm 0.00 in0.0 mm 0.00 in0.0 mm
02:20 AM 53.1°F11.7°C 50.5°F10.3°C 91% 3.8 mph W6.1 kmh W 6.0 mph9.7 kmh 29.65 in1004.1 mb 0.00 in0.0 mm 0.00 in0.0 mm 0.00 in0.0 mm
02:15 AM 53.2°F11.8°C 50.7°F10.4°C 91% 0.7 mph W1.1 kmh W 6.0 mph9.7 kmh 29.65 in1004.1 mb 0.00 in0.0 mm 0.00 in0.0 mm 0.00 in0.0 mm
02:10 AM 53.1°F11.7°C 50.5°F10.3°C 91% 1.6 mph WNW2.6 kmh WNW 4.5 mph7.2 kmh 29.65 in1004.1 mb 0.00 in0.0 mm 0.00 in0.0 mm 0.00 in0.0 mm
02:05 AM 53.2°F11.8°C 50.7°F10.4°C 91% 2.2 mph WNW3.5 kmh WNW 4.5 mph7.2 kmh 29.65 in1004.1 mb 0.00 in0.0 mm 0.00 in0.0 mm 0.00 in0.0 mm
02:00 AM 53.2°F11.8°C 50.4°F10.2°C 90% 1.6 mph W2.6 kmh W 4.5 mph7.2 kmh 29.65 in1004.1 mb 0.00 in0.0 mm 0.00 in0.0 mm 0.00 in0.0 mm
01:55 AM 53.4°F11.9°C 50.6°F10.3°C 90% 0.7 mph WSW1.1 kmh WSW 5.4 mph8.7 kmh 29.65 in1004.1 mb 0.00 in0.0 mm 0.00 in0.0 mm 0.00 in0.0 mm
01:50 AM 53.4°F11.9°C 50.6°F10.3°C 90% 2.2 mph NW3.5 kmh NW 5.4 mph8.7 kmh 29.65 in1004.1 mb 0.00 in0.0 mm 0.00 in0.0 mm 0.00 in0.0 mm
01:45 AM 53.6°F12.0°C 50.4°F10.2°C 89% 0.7 mph NW1.1 kmh NW 4.5 mph7.2 kmh 29.65 in1004.1 mb 0.00 in0.0 mm 0.00 in0.0 mm 0.00 in0.0 mm
01:40 AM 53.6°F12.0°C 50.4°F10.2°C 89% 1.6 mph W2.6 kmh W 5.4 mph8.7 kmh 29.65 in1004.1 mb 0.00 in0.0 mm 0.00 in0.0 mm 0.00 in0.0 mm
01:35 AM 53.8°F12.1°C 50.6°F10.3°C 89% 3.1 mph WNW5.0 kmh WNW 5.4 mph8.7 kmh 29.66 in1004.4 mb 0.00 in0.0 mm 0.00 in0.0 mm 0.00 in0.0 mm
01:30 AM 54.0°F12.2°C 50.8°F10.4°C 89% 0.7 mph NW1.1 kmh NW 5.4 mph8.7 kmh 29.65 in1004.1 mb 0.00 in0.0 mm 0.00 in0.0 mm 0.00 in0.0 mm
01:25 AM 54.0°F12.2°C 50.8°F10.4°C 89% 0.7 mph NW1.1 kmh NW 5.4 mph8.7 kmh 29.65 in1004.1 mb 0.00 in0.0 mm 0.00 in0.0 mm 0.00 in0.0 mm
01:20 AM 54.0°F12.2°C 50.8°F10.4°C 89% 0.7 mph WNW1.1 kmh WNW 6.9 mph11.1 kmh 29.65 in1004.1 mb 0.00 in0.0 mm 0.00 in0.0 mm 0.00 in0.0 mm
01:15 AM 54.1°F12.3°C 51.0°F10.6°C 89% 1.6 mph WSW2.6 kmh WSW 7.6 mph12.2 kmh 29.65 in1004.1 mb 0.00 in0.0 mm 0.00 in0.0 mm 0.00 in0.0 mm
01:10 AM 54.1°F12.3°C 51.0°F10.6°C 89% 0.7 mph WSW1.1 kmh WSW 7.6 mph12.2 kmh 29.65 in1004.1 mb 0.00 in0.0 mm 0.00 in0.0 mm 0.00 in0.0 mm
01:05 AM 54.1°F12.3°C 51.0°F10.6°C 89% 1.6 mph W2.6 kmh W 6.9 mph11.1 kmh 29.65 in1004.1 mb 0.00 in0.0 mm 0.00 in0.0 mm 0.00 in0.0 mm
01:00 AM 54.1°F12.3°C 51.0°F10.6°C 89% 2.2 mph W3.5 kmh W 6.9 mph11.1 kmh 29.65 in1004.1 mb 0.00 in0.0 mm 0.00 in0.0 mm 0.00 in0.0 mm
12:55 AM 54.3°F12.4°C 51.5°F10.8°C 90% 2.2 mph WNW3.5 kmh WNW 6.9 mph11.1 kmh 29.65 in1004.1 mb 0.00 in0.0 mm 0.00 in0.0 mm 0.00 in0.0 mm
12:50 AM 54.3°F12.4°C 51.2°F10.7°C 89% 1.6 mph W2.6 kmh W 8.3 mph13.4 kmh 29.65 in1004.1 mb 0.00 in0.0 mm 0.00 in0.0 mm 0.00 in0.0 mm
12:45 AM 54.3°F12.4°C 51.2°F10.7°C 89% 3.8 mph W6.1 kmh W 8.3 mph13.4 kmh 29.64 in1003.7 mb 0.00 in0.0 mm 0.00 in0.0 mm 0.00 in0.0 mm
12:40 AM 54.5°F12.5°C 51.3°F10.7°C 89% 3.1 mph WNW5.0 kmh WNW 6.9 mph11.1 kmh 29.64 in1003.7 mb 0.00 in0.0 mm 0.00 in0.0 mm 0.00 in0.0 mm
12:35 AM 54.5°F12.5°C 51.3°F10.7°C 89% 2.2 mph WNW3.5 kmh WNW 7.6 mph12.2 kmh 29.64 in1003.7 mb 0.00 in0.0 mm 0.00 in0.0 mm 0.00 in0.0 mm
12:30 AM 54.7°F12.6°C 51.5°F10.8°C 89% 0.7 mph WNW1.1 kmh WNW 7.6 mph12.2 kmh 29.64 in1003.7 mb 0.00 in0.0 mm 0.00 in0.0 mm 0.00 in0.0 mm
12:25 AM 54.7°F12.6°C 51.5°F10.8°C 89% 1.6 mph WNW2.6 kmh WNW 6.0 mph9.7 kmh 29.64 in1003.7 mb 0.00 in0.0 mm 0.00 in0.0 mm 0.00 in0.0 mm
12:20 AM 54.7°F12.6°C 51.5°F10.8°C 89% 1.6 mph WSW2.6 kmh WSW 6.0 mph9.7 kmh 29.63 in1003.4 mb 0.00 in0.0 mm 0.00 in0.0 mm 0.00 in0.0 mm
12:15 AM 54.9°F12.7°C 51.7°F10.9°C 89% 3.1 mph SW5.0 kmh SW 5.4 mph8.7 kmh 29.63 in1003.4 mb 0.00 in0.0 mm 0.00 in0.0 mm 0.00 in0.0 mm
12:10 AM 54.9°F12.7°C 51.7°F10.9°C 89% 2.2 mph WSW3.5 kmh WSW 6.0 mph9.7 kmh 29.63 in1003.4 mb 0.00 in0.0 mm 0.00 in0.0 mm 0.00 in0.0 mm
12:05 AM 55.0°F12.8°C 51.9°F11.1°C 89% 2.2 mph WNW3.5 kmh WNW 6.0 mph9.7 kmh 29.63 in1003.4 mb 0.00 in0.0 mm 0.00 in0.0 mm 0.00 in0.0 mm
12:00 AM 54.9°F12.7°C 51.7°F10.9°C 89% 0.7 mph NW1.1 kmh NW 5.4 mph8.7 kmh 29.63 in1003.4 mb 0.00 in0.0 mm 0.00 in0.0 mm 0.00 in0.0 mm